Time;durP1;ratioP1;P1;durP2;ratioP2;P2;SDS_P1;SDS_P2;PMS_P1;PMS_P2;Temp;Humidity;BMP_temperature;BMP_pressure;BME280_temperature;BME280_humidity;BME280_pressure;Samples;Min_cycle;Max_cycle;Signal;HPM_P1;HPM_P2
2022/02/05 00:05:33;;;;;;;0.40;0.20;;;4.60;99.90;;;;;;6317387;22;20432;-85
2022/02/05 00:43:16;;;;;;;1.90;0.33;;;3.70;99.90;;;;;;6319267;22;20003;-86
2022/02/05 00:45:46;;;;;;;3.10;0.40;;;3.60;99.90;;;;;;6281652;22;20027;-85
2022/02/05 00:48:13;;;;;;;1.27;0.30;;;3.60;99.90;;;;;;6281477;22;20007;-86
2022/02/05 00:50:43;;;;;;;0.73;0.30;;;3.50;99.90;;;;;;6280195;22;20043;-86
2022/02/05 00:55:53;;;;;;;0.90;0.20;;;3.50;99.90;;;;;;6318875;22;20078;-86
2022/02/05 00:58:19;;;;;;;1.27;0.40;;;3.40;99.90;;;;;;6280668;22;20164;-86
2022/02/05 01:00:45;;;;;;;1.83;0.73;;;3.30;99.90;;;;;;6307663;22;20352;-86
2022/02/05 01:03:10;;;;;;;0.80;0.20;;;3.20;99.90;;;;;;6280734;22;20010;-85
2022/02/05 01:05:36;;;;;;;1.83;0.30;;;3.10;99.90;;;;;;6281228;22;20003;-86
2022/02/05 01:08:03;;;;;;;0.77;0.30;;;3.10;99.90;;;;;;6308661;22;20004;-86
2022/02/05 01:10:29;;;;;;;2.57;0.30;;;3.00;99.90;;;;;;6307526;22;20038;-85
2022/02/05 01:13:03;;;;;;;0.77;0.20;;;2.90;99.90;;;;;;6276360;22;19999;-86
2022/02/05 01:15:35;;;;;;;0.53;0.20;;;2.90;99.90;;;;;;6308550;22;20046;-85
2022/02/05 01:18:05;;;;;;;1.57;0.20;;;2.90;99.90;;;;;;6280449;22;20003;-85
2022/02/05 01:23:19;;;;;;;0.40;0.23;;;2.80;99.90;;;;;;6308413;22;20056;-85
2022/02/05 01:25:53;;;;;;;2.60;0.40;;;2.80;99.90;;;;;;6281321;22;19999;-86
2022/02/05 01:28:25;;;;;;;1.63;0.37;;;2.80;99.90;;;;;;6280903;22;20412;-86
2022/02/05 01:30:54;;;;;;;0.20;0.20;;;2.70;99.90;;;;;;6307738;22;20011;-86
2022/02/05 01:36:13;;;;;;;2.00;0.30;;;2.70;99.90;;;;;;6308642;22;20487;-84
2022/02/05 01:52:24;;;;;;;1.00;0.20;;;2.50;99.90;;;;;;6316657;22;20011;-86
2022/02/05 01:57:40;;;;;;;1.03;0.47;;;2.40;99.90;;;;;;6306657;22;20011;-87
2022/02/05 02:04:48;;;;;;;1.77;0.20;;;2.40;99.90;;;;;;6303364;22;19999;-86
2022/02/05 02:05:38;;;;;;;0.80;0.30;;;2.40;99.90;;;;;;6304371;22;20006;-87
2022/02/05 02:17:03;;;;;;;2.63;0.30;;;2.30;99.90;;;;;;6180550;23;20012;-86
2022/02/05 02:19:32;;;;;;;0.50;0.20;;;2.20;99.90;;;;;;6269769;22;20003;-87
2022/02/05 02:22:09;;;;;;;0.80;0.20;;;2.20;99.90;;;;;;6276981;22;19999;-87
2022/02/05 02:30:04;;;;;;;3.20;0.30;;;2.10;99.90;;;;;;6303505;22;20018;-87
2022/02/05 02:32:32;;;;;;;1.33;0.30;;;2.10;99.90;;;;;;6303126;22;20572;-87
2022/02/05 02:35:05;;;;;;;0.93;0.30;;;2.00;99.90;;;;;;6276982;22;20034;-87
2022/02/05 02:37:37;;;;;;;1.13;0.20;;;2.00;99.90;;;;;;6276481;22;20011;-83
2022/02/05 02:40:21;;;;;;;0.60;0.30;;;1.90;99.90;;;;;;6302374;22;20673;-86
2022/02/05 02:42:50;;;;;;;4.23;0.40;;;1.80;99.90;;;;;;6304808;22;20009;-87
2022/02/05 02:45:16;;;;;;;3.73;0.40;;;1.80;99.90;;;;;;6276623;22;20025;-87
2022/02/05 02:47:44;;;;;;;5.33;0.50;;;1.70;99.90;;;;;;6276815;22;20094;-85
2022/02/05 02:50:17;;;;;;;0.80;0.20;;;1.70;99.90;;;;;;6303670;22;20014;-86
2022/02/05 02:58:17;;;;;;;1.03;0.30;;;1.60;99.90;;;;;;6304248;22;20018;-87
2022/02/05 03:00:43;;;;;;;2.50;0.50;;;1.70;99.90;;;;;;6276535;22;20026;-87
2022/02/05 03:03:08;;;;;;;0.73;0.30;;;1.60;99.90;;;;;;6304200;22;20011;-85
2022/02/05 03:05:34;;;;;;;3.03;0.40;;;1.60;99.90;;;;;;6276626;22;20086;-86
2022/02/05 03:07:59;;;;;;;2.27;0.27;;;1.60;99.90;;;;;;6304230;22;19999;-87
2022/02/05 03:10:25;;;;;;;2.67;0.40;;;1.60;99.90;;;;;;6276299;22;20042;-86
2022/02/05 03:12:51;;;;;;;0.90;0.40;;;1.60;99.90;;;;;;6300128;22;19999;-86
2022/02/05 03:15:20;;;;;;;1.50;0.40;;;1.60;99.90;;;;;;6303992;22;20026;-87
2022/02/05 03:18:03;;;;;;;1.20;0.50;;;1.50;99.90;;;;;;6277059;22;20003;-87
2022/02/05 03:20:29;;;;;;;3.20;0.70;;;1.50;99.90;;;;;;6277910;22;20011;-87
2022/02/05 03:22:55;;;;;;;0.97;0.40;;;1.50;99.90;;;;;;6277195;22;20386;-87
2022/02/05 03:25:21;;;;;;;2.63;0.50;;;1.50;99.90;;;;;;6304534;22;20051;-86
2022/02/05 03:27:46;;;;;;;1.40;0.47;;;1.50;99.90;;;;;;6276847;22;20434;-86
2022/02/05 03:30:12;;;;;;;1.47;0.50;;;1.50;99.90;;;;;;6276580;22;20064;-86
2022/02/05 03:32:38;;;;;;;3.10;0.70;;;1.50;99.90;;;;;;6304050;22;20007;-86
2022/02/05 03:35:04;;;;;;;3.57;0.60;;;1.50;99.90;;;;;;6304439;22;20060;-86
2022/02/05 03:37:31;;;;;;;3.20;0.60;;;1.50;99.90;;;;;;6276545;22;20004;-86
2022/02/05 03:39:57;;;;;;;0.97;0.60;;;1.50;99.90;;;;;;6275300;22;20017;-86
2022/02/05 03:42:22;;;;;;;6.67;0.50;;;1.40;99.90;;;;;;6304240;22;20003;-87
2022/02/05 03:44:48;;;;;;;1.70;0.60;;;1.40;99.90;;;;;;6276556;22;19999;-87
2022/02/05 03:47:13;;;;;;;2.30;0.57;;;1.40;99.90;;;;;;6276478;22;20461;-87
2022/02/05 03:49:39;;;;;;;3.37;1.03;;;1.40;99.90;;;;;;6276304;22;19999;-86
2022/02/05 03:52:05;;;;;;;2.30;0.77;;;1.40;99.90;;;;;;6277764;22;20035;-86
2022/02/05 03:54:33;;;;;;;1.97;0.43;;;1.40;99.90;;;;;;6276630;22;20003;-86
2022/02/05 04:10:38;;;;;;;1.40;0.40;;;1.40;99.90;;;;;;6278076;22;20027;-89
2022/02/05 04:19:57;;;;;;;;;;;;;;;;;;;;;
2022/02/05 04:23:14;;;;;;;1.43;0.40;;;1.50;99.90;;;;;;6248014;23;20071;-91
2022/02/05 04:26:34;;;;;;;1.80;0.57;;;1.40;99.90;;;;;;6243602;23;19997;-90
2022/02/05 04:29:48;;;;;;;1.60;0.50;;;1.40;99.90;;;;;;6094118;23;20010;-90
2022/02/05 04:32:56;;;;;;;1.53;0.40;;;1.40;99.90;;;;;;6132852;23;20086;-90
2022/02/05 04:35:36;;;;;;;5.63;0.87;;;1.50;99.90;;;;;;6234436;23;20358;-90
2022/02/05 04:38:57;;;;;;;;;;;;;;;;;;;;;
2022/02/05 04:42:27;;;;;;;;;;;;;;;;;;;;;
2022/02/05 05:04:53;;;;;;;5.10;0.90;;;1.70;99.90;;;;;;6107458;23;20002;-91
2022/02/05 05:50:08;;;;;;;7.03;0.80;;;1.60;99.90;;;;;;6276902;22;20357;-89
2022/02/05 05:56:28;;;;;;;3.33;0.60;;;1.60;99.90;;;;;;6233923;22;20004;-88
2022/02/05 05:59:33;;;;;;;3.77;0.97;;;1.80;99.90;;;;;;6249281;22;20057;-89
2022/02/05 06:02:37;;;;;;;3.57;0.77;;;1.70;99.90;;;;;;6249540;22;20434;-88
2022/02/05 06:05:25;;;;;;;;;;;;;;;;;;;;;
2022/02/05 06:08:39;;;;;;;3.40;0.60;;;1.70;99.90;;;;;;6276764;22;20608;-88
2022/02/05 06:18:29;;;;;;;4.20;0.52;;;1.80;99.90;;;;;;6196509;22;20000;-89
2022/02/05 06:34:44;;;;;;;2.00;0.83;;;1.80;99.90;;;;;;6094248;23;20006;-89
2022/02/05 06:38:00;;;;;;;4.40;0.83;;;2.00;99.90;;;;;;6126945;23;20017;-90
2022/02/05 06:48:16;;;;;;;5.57;0.90;;;1.90;99.90;;;;;;6151632;23;20387;-91
2022/02/05 06:51:37;;;;;;;7.93;1.23;;;1.90;99.90;;;;;;6067934;23;20630;-89
2022/02/05 06:54:20;;;;;;;2.17;0.70;;;1.90;99.90;;;;;;6096256;23;20430;-90
2022/02/05 07:16:23;;;;;;;1.98;0.90;;;1.90;99.90;;;;;;6159546;23;20012;-90
2022/02/05 07:36:00;;;;;;;1.60;0.70;;;1.80;99.90;;;;;;6127615;23;20011;-90
2022/02/05 07:48:18;;;;;;;2.13;0.73;;;1.90;99.90;;;;;;6124932;23;20468;-88
2022/02/05 07:51:13;;;;;;;1.47;0.60;;;1.90;99.90;;;;;;6214287;23;20047;-87
2022/02/05 07:53:39;;;;;;;3.47;0.70;;;1.90;99.90;;;;;;6214354;23;20003;-87
2022/02/05 07:56:06;;;;;;;1.37;0.47;;;1.90;99.90;;;;;;6187389;23;20056;-88
2022/02/05 07:58:46;;;;;;;1.10;0.53;;;2.00;99.90;;;;;;6215292;23;20004;-88
2022/02/05 08:04:35;;;;;;;2.07;0.80;;;2.00;99.90;;;;;;6216040;23;20446;-87
2022/02/05 08:07:08;;;;;;;2.57;0.90;;;2.10;99.90;;;;;;6185327;23;20493;-87
2022/02/05 08:10:03;;;;;;;3.13;0.60;;;2.10;99.90;;;;;;6213343;23;20055;-88
2022/02/05 08:12:30;;;;;;;3.43;0.60;;;2.20;99.90;;;;;;6210289;23;20012;-89
2022/02/05 08:14:58;;;;;;;3.30;0.67;;;2.30;99.90;;;;;;6188257;23;20430;-88
2022/02/05 08:17:29;;;;;;;1.77;0.53;;;2.20;99.90;;;;;;6214916;23;20000;-88
2022/02/05 08:19:56;;;;;;;1.65;0.52;;;2.40;99.90;;;;;;6211754;23;20004;-88
2022/02/05 08:22:34;;;;;;;3.40;0.60;;;2.40;99.90;;;;;;6212896;23;20439;-88
2022/02/05 08:25:03;;;;;;;2.23;0.40;;;2.50;99.90;;;;;;6210780;23;20009;-88
2022/02/05 08:27:40;;;;;;;3.30;0.80;;;2.60;99.90;;;;;;6212015;23;20100;-87
2022/02/05 08:30:13;;;;;;;1.90;0.57;;;2.50;99.90;;;;;;6213514;23;20119;-88
2022/02/05 08:32:40;;;;;;;1.23;0.70;;;2.60;99.90;;;;;;6213895;23;20118;-88
2022/02/05 08:35:19;;;;;;;2.20;0.60;;;2.60;99.90;;;;;;6212847;23;20012;-89
2022/02/05 08:37:48;;;;;;;3.60;0.87;;;2.60;99.90;;;;;;6213034;23;20016;-88
2022/02/05 08:40:16;;;;;;;1.37;0.50;;;2.70;99.90;;;;;;6212121;23;20009;-88
2022/02/05 08:42:42;;;;;;;2.53;0.50;;;2.70;99.90;;;;;;6215266;23;20001;-87
2022/02/05 08:45:12;;;;;;;5.23;0.70;;;2.80;99.90;;;;;;6213650;23;20051;-89
2022/02/05 08:47:40;;;;;;;5.57;0.53;;;2.80;99.90;;;;;;6190604;23;20008;-88
2022/02/05 08:50:09;;;;;;;4.23;0.63;;;2.90;99.90;;;;;;6215858;23;20466;-89
2022/02/05 08:55:57;;;;;;;6.57;0.90;;;3.00;99.90;;;;;;6221052;23;20003;-85
2022/02/05 08:58:23;;;;;;;3.23;0.60;;;3.00;99.90;;;;;;6225520;23;20001;-85
2022/02/05 09:01:08;;;;;;;2.17;0.60;;;3.10;99.90;;;;;;6218870;23;20007;-89
2022/02/05 09:04:09;;;;;;;2.17;0.70;;;3.10;99.90;;;;;;6215568;23;20005;-88
2022/02/05 09:16:08;;;;;;;5.63;0.83;;;3.60;99.90;;;;;;6219834;23;20042;-87
2022/02/05 09:19:19;;;;;;;4.47;0.52;;;3.70;99.90;;;;;;6218812;23;20001;-88
2022/02/05 09:22:30;;;;;;;2.87;0.40;;;3.80;99.90;;;;;;6217461;23;20011;-88
2022/02/05 09:29:11;;;;;;;3.60;0.70;;;3.90;99.90;;;;;;6228902;23;20004;-89
2022/02/05 09:35:07;;;;;;;5.37;0.60;;;4.00;99.90;;;;;;6222284;23;20009;-88
2022/02/05 09:38:00;;;;;;;0.93;0.30;;;4.20;99.90;;;;;;6207134;23;20033;-88
2022/02/05 09:43:31;;;;;;;1.65;0.52;;;4.30;99.90;;;;;;6219035;23;19954;-88
2022/02/05 09:46:08;;;;;;;1.23;0.40;;;4.30;99.90;;;;;;6216683;23;20008;-88
2022/02/05 09:49:15;;;;;;;3.37;0.63;;;4.40;99.90;;;;;;6219765;23;20004;-87
2022/02/05 09:55:15;;;;;;;2.40;0.47;;;4.50;99.90;;;;;;6213948;23;20064;-88
2022/02/05 09:58:25;;;;;;;2.73;0.50;;;4.50;99.90;;;;;;6218855;23;20004;-88
2022/02/05 10:01:14;;;;;;;2.00;0.40;;;4.60;99.90;;;;;;6224580;23;20365;-89
2022/02/05 10:03:45;;;;;;;2.07;0.40;;;4.70;99.90;;;;;;6227752;22;20085;-87
2022/02/05 10:06:32;;;;;;;1.37;0.40;;;4.80;99.90;;;;;;6243896;22;20000;-88
2022/02/05 10:09:10;;;;;;;5.67;0.40;;;4.80;99.90;;;;;;6242127;23;20548;-87
2022/02/05 10:11:57;;;;;;;3.03;0.40;;;4.80;99.90;;;;;;6242569;23;20426;-88
2022/02/05 10:14:25;;;;;;;2.17;0.40;;;4.90;99.90;;;;;;6242055;23;20008;-88
2022/02/05 10:16:53;;;;;;;1.27;0.27;;;4.90;99.90;;;;;;6243404;23;20427;-87
2022/02/05 10:19:23;;;;;;;2.67;0.37;;;5.00;99.90;;;;;;6242143;23;20087;-86
2022/02/05 10:22:08;;;;;;;1.33;0.43;;;5.00;99.90;;;;;;6239349;22;20517;-86
2022/02/05 10:24:34;;;;;;;2.40;0.30;;;5.00;99.90;;;;;;6242312;23;20446;-86
2022/02/05 10:27:00;;;;;;;3.83;0.47;;;5.00;99.90;;;;;;6242165;23;20026;-86
2022/02/05 10:29:27;;;;;;;1.27;0.33;;;5.10;99.90;;;;;;6241463;23;20034;-87
2022/02/05 10:32:15;;;;;;;1.93;0.47;;;5.20;99.90;;;;;;6242440;23;20008;-86
2022/02/05 10:35:16;;;;;;;2.07;0.27;;;5.30;99.90;;;;;;6245815;22;20053;-87
2022/02/05 10:38:25;;;;;;;2.20;0.40;;;5.50;99.90;;;;;;6246545;22;20004;-90
2022/02/05 10:40:49;;;;;;;2.70;0.40;;;5.50;99.90;;;;;;6242970;23;20097;-89
2022/02/05 10:43:30;;;;;;;0.70;0.20;;;5.60;99.90;;;;;;6241848;23;20062;-88
2022/02/05 10:45:57;;;;;;;0.87;0.47;;;5.60;99.90;;;;;;6242296;23;20011;-89
2022/02/05 10:48:34;;;;;;;1.13;0.50;;;5.60;99.90;;;;;;6243052;23;20410;-90
2022/02/05 10:51:03;;;;;;;2.63;0.27;;;5.70;99.90;;;;;;6242747;23;20474;-89
2022/02/05 10:53:33;;;;;;;4.53;0.40;;;5.70;99.90;;;;;;6242410;23;20008;-89
2022/02/05 10:56:23;;;;;;;3.03;0.40;;;5.70;99.90;;;;;;6241955;23;20435;-89
2022/02/05 10:59:15;;;;;;;5.27;0.43;;;5.70;99.90;;;;;;6242403;23;20026;-87
2022/02/05 11:07:22;;;;;;;0.90;0.20;;;5.80;99.90;;;;;;6273966;22;20077;-86
2022/02/05 11:09:50;;;;;;;0.47;0.20;;;5.90;99.90;;;;;;6274001;22;20011;-87
2022/02/05 11:12:21;;;;;;;2.07;0.47;;;6.00;99.90;;;;;;6246111;22;20054;-88
2022/02/05 11:20:33;;;;;;;0.63;0.30;;;6.00;99.90;;;;;;6161239;23;20032;-87
2022/02/05 11:23:05;;;;;;;3.13;0.30;;;6.00;99.90;;;;;;6215108;22;20356;-88
2022/02/05 11:25:35;;;;;;;0.63;0.20;;;6.00;99.90;;;;;;6275941;22;20038;-88
2022/02/05 11:28:01;;;;;;;0.50;0.10;;;5.90;99.90;;;;;;6275242;22;20070;-88
2022/02/05 11:30:27;;;;;;;2.07;0.40;;;6.00;99.90;;;;;;6274397;22;20042;-87
2022/02/05 11:32:55;;;;;;;1.07;0.30;;;6.00;99.90;;;;;;6248500;22;20004;-89
2022/02/05 11:38:30;;;;;;;0.40;0.13;;;6.10;99.90;;;;;;6274904;22;20007;-88
2022/02/05 11:40:57;;;;;;;2.30;0.30;;;5.90;99.90;;;;;;6249166;22;20004;-89
2022/02/05 11:43:31;;;;;;;0.67;0.20;;;6.00;99.90;;;;;;6276325;22;20106;-88
2022/02/05 11:46:14;;;;;;;4.30;0.80;;;6.10;99.90;;;;;;6248822;22;20004;-87
2022/02/05 11:48:54;;;;;;;2.70;0.50;;;6.30;99.90;;;;;;6250765;22;20144;-88
2022/02/05 11:51:23;;;;;;;0.90;0.20;;;6.30;99.90;;;;;;6278241;22;20433;-89
2022/02/05 11:54:04;;;;;;;1.00;0.30;;;6.30;99.90;;;;;;6250460;22;20011;-88
2022/02/05 11:59:25;;;;;;;1.55;0.22;;;6.30;99.90;;;;;;6288512;22;20007;-88
2022/02/05 12:02:12;;;;;;;2.10;1.20;;;6.40;99.90;;;;;;6246045;22;20010;-88
2022/02/05 12:04:37;;;;;;;1.03;0.20;;;6.50;99.90;;;;;;6249100;22;20505;-87
2022/02/05 12:07:08;;;;;;;2.17;0.20;;;6.40;99.90;;;;;;6249736;22;20000;-89
2022/02/05 12:09:40;;;;;;;3.50;0.10;;;6.50;99.90;;;;;;6249973;22;20053;-89
2022/02/05 12:12:27;;;;;;;0.05;0.00;;;6.50;99.90;;;;;;6250333;22;20022;-89
2022/02/05 12:15:18;;;;;;;2.13;0.23;;;6.50;99.90;;;;;;6277219;22;20004;-89
2022/02/05 12:21:14;;;;;;;0.43;0.10;;;6.70;99.90;;;;;;6278651;22;20008;-89
2022/02/05 12:26:25;;;;;;;1.08;0.03;;;6.80;99.90;;;;;;6276036;22;20007;-89
2022/02/05 12:28:52;;;;;;;2.63;0.30;;;6.60;99.90;;;;;;6248888;22;20382;-88
2022/02/05 12:31:18;;;;;;;3.43;0.30;;;6.60;99.90;;;;;;6277065;22;20133;-88
2022/02/05 12:33:54;;;;;;;1.43;0.30;;;6.60;99.90;;;;;;6276373;22;20628;-88
2022/02/05 12:36:40;;;;;;;1.17;0.30;;;6.60;99.90;;;;;;6251327;22;20012;-89
2022/02/05 12:39:08;;;;;;;0.63;0.10;;;6.70;99.90;;;;;;6275494;22;20012;-88
2022/02/05 12:41:35;;;;;;;0.10;0.00;;;6.80;99.90;;;;;;6250211;22;20029;-88
2022/02/05 12:44:04;;;;;;;0.10;0.10;;;6.80;99.90;;;;;;6250792;22;20057;-89
2022/02/05 12:46:47;;;;;;;0.63;0.13;;;6.90;99.90;;;;;;6277637;22;20000;-88
2022/02/05 12:49:19;;;;;;;1.57;0.20;;;6.90;99.90;;;;;;6249863;22;20062;-89
2022/02/05 12:51:47;;;;;;;4.13;0.28;;;7.00;99.90;;;;;;6250415;22;20372;-88
2022/02/05 12:54:18;;;;;;;0.60;0.40;;;7.10;99.90;;;;;;6249612;22;20010;-88
2022/02/05 12:56:45;;;;;;;3.53;0.43;;;7.20;99.90;;;;;;6251805;22;20015;-88
2022/02/05 12:59:17;;;;;;;1.97;0.20;;;7.20;99.90;;;;;;6281204;22;20003;-87
2022/02/05 13:01:52;;;;;;;0.90;0.20;;;7.30;99.90;;;;;;6280375;22;20378;-88
2022/02/05 13:04:20;;;;;;;1.10;0.17;;;7.20;99.90;;;;;;6280463;22;20007;-89
2022/02/05 13:07:03;;;;;;;1.67;0.30;;;7.20;99.90;;;;;;6253576;22;20134;-87
2022/02/05 13:09:30;;;;;;;1.73;0.10;;;7.20;99.90;;;;;;6252119;22;20014;-88
2022/02/05 13:12:05;;;;;;;1.83;0.50;;;7.20;99.90;;;;;;6252937;22;20014;-88
2022/02/05 13:14:37;;;;;;;0.63;0.10;;;7.20;99.90;;;;;;6253640;22;20004;-88
2022/02/05 13:17:12;;;;;;;0.52;0.10;;;7.10;99.90;;;;;;6253452;22;20023;-88
2022/02/05 13:20:01;;;;;;;1.33;0.20;;;7.10;99.90;;;;;;6252932;22;20505;-87
2022/02/05 13:28:25;;;;;;;0.20;0.07;;;7.30;99.90;;;;;;6290569;22;20495;-89
2022/02/05 13:36:25;;;;;;;0.43;0.10;;;7.50;99.90;;;;;;6280633;22;20050;-89
2022/02/05 13:39:09;;;;;;;2.10;0.37;;;7.70;99.90;;;;;;6249966;22;20038;-89
2022/02/05 13:41:56;;;;;;;2.33;0.30;;;7.80;99.90;;;;;;6253138;22;20506;-88
2022/02/05 13:44:53;;;;;;;0.20;0.03;;;7.90;99.90;;;;;;6257109;22;20000;-92
2022/02/05 13:47:19;;;;;;;0.77;0.10;;;8.00;99.90;;;;;;6255950;22;20000;-91
2022/02/05 13:50:06;;;;;;;2.33;0.17;;;8.20;99.90;;;;;;6253988;22;20004;-91
2022/02/05 13:52:45;;;;;;;1.63;0.80;;;8.10;99.90;;;;;;6254632;22;20007;-92
2022/02/05 13:55:22;;;;;;;0.67;0.10;;;8.30;99.90;;;;;;6261426;22;20004;-91
2022/02/05 13:58:07;;;;;;;1.80;0.20;;;8.40;99.90;;;;;;6261448;22;20008;-91
2022/02/05 14:01:01;;;;;;;1.83;0.30;;;8.40;99.90;;;;;;6259589;22;20015;-91
2022/02/05 14:03:39;;;;;;;1.40;0.20;;;8.50;99.90;;;;;;6255544;23;20012;-92
2022/02/05 14:06:16;;;;;;;2.83;0.50;;;8.50;99.90;;;;;;6270255;22;20073;-91
2022/02/05 14:08:57;;;;;;;1.83;0.17;;;8.30;99.90;;;;;;6258143;23;20065;-91
2022/02/05 14:11:42;;;;;;;;;;;;;;;;;;;;;
2022/02/05 14:18:05;;;;;;;;;;;;;;;;;;;;;
2022/02/05 14:21:25;;;;;;;0.10;0.00;;;8.00;99.90;;;;;;6273402;22;20004;-93
2022/02/05 14:23:57;;;;;;;0.63;0.10;;;7.80;99.70;;;;;;6238326;22;20086;-92
2022/02/05 14:27:03;;;;;;;1.90;0.20;;;7.70;99.80;;;;;;6271160;22;20027;-92
2022/02/05 14:29:55;;;;;;;0.43;0.10;;;7.30;99.90;;;;;;6251649;23;20011;-92
2022/02/05 14:32:41;;;;;;;1.27;0.10;;;7.40;99.90;;;;;;6249845;23;20031;-92
2022/02/05 14:35:43;;;;;;;0.57;0.17;;;7.50;99.90;;;;;;6248453;23;20027;-93
2022/02/05 14:41:21;;;;;;;0.47;0.10;;;7.90;99.70;;;;;;6258168;23;20015;-93
2022/02/05 14:44:27;;;;;;;1.33;0.20;;;8.30;99.70;;;;;;6257215;23;19996;-93
2022/02/05 14:46:56;;;;;;;0.40;0.17;;;8.40;99.40;;;;;;6243699;22;20004;-93
2022/02/05 14:49:28;;;;;;;3.47;0.17;;;8.70;99.10;;;;;;6250938;23;20004;-94
2022/02/05 14:52:13;;;;;;;;;;;;;;;;;;;;;
2022/02/05 14:54:51;;;;;;;1.03;0.20;;;9.00;97.70;;;;;;6247703;23;20060;-92
2022/02/05 14:57:23;;;;;;;1.50;0.13;;;8.80;98.30;;;;;;6247403;23;20031;-93
2022/02/05 15:00:03;;;;;;;0.68;0.20;;;8.90;98.30;;;;;;6244055;23;20008;-92
2022/02/05 15:02:40;;;;;;;1.40;0.20;;;8.90;98.40;;;;;;6244926;23;20083;-92
2022/02/05 15:05:38;;;;;;;1.10;0.23;;;9.10;98.30;;;;;;6245210;23;20000;-93
2022/02/05 15:08:17;;;;;;;;;;;;;;;;;;;;;
2022/02/05 15:11:21;;;;;;;;;;;;;;;;;;;;;
2022/02/05 15:17:45;;;;;;;1.03;0.20;;;8.70;97.80;;;;;;6234343;22;20000;-92
2022/02/05 15:20:30;;;;;;;;;;;;;;;;;;;;;
2022/02/05 15:23:02;;;;;;;2.17;0.17;;;9.30;96.90;;;;;;6248304;23;20079;-93
2022/02/05 15:26:03;;;;;;;;;;;;;;;;;;;;;
2022/02/05 15:32:41;;;;;;;0.90;0.10;;;8.80;98.20;;;;;;6197275;22;20000;-92
2022/02/05 15:35:19;;;;;;;1.03;0.10;;;8.50;98.60;;;;;;6256730;23;20008;-92
2022/02/05 15:37:50;;;;;;;1.43;0.20;;;7.80;99.40;;;;;;6255889;23;20032;-93
2022/02/05 15:43:27;;;;;;;0.50;0.20;;;7.40;99.90;;;;;;6248330;23;20427;-92
2022/02/05 15:43:40;;;;;;;1.90;0.23;;;7.00;99.90;;;;;;6249744;23;20008;-92
2022/02/05 15:46:12;;;;;;;1.70;0.20;;;6.60;99.90;;;;;;6248322;23;20000;-91
2022/02/05 15:48:40;;;;;;;1.13;0.25;;;6.30;99.90;;;;;;6260163;22;20036;-90
2022/02/05 15:51:08;;;;;;;0.20;0.10;;;6.10;99.90;;;;;;6270299;22;20023;-92
2022/02/05 15:59:07;;;;;;;0.80;0.20;;;5.70;99.90;;;;;;6268146;22;20066;-93
2022/02/05 16:01:37;;;;;;;1.65;0.50;;;5.60;99.90;;;;;;6253702;23;20087;-92
2022/02/05 16:04:03;;;;;;;1.93;0.20;;;5.50;99.90;;;;;;6252773;23;20012;-92
2022/02/05 16:06:35;;;;;;;0.47;0.20;;;5.50;99.90;;;;;;6255817;23;20007;-92
2022/02/05 16:09:04;;;;;;;3.77;1.03;;;5.40;99.90;;;;;;6253521;23;20011;-93
2022/02/05 16:11:36;;;;;;;0.77;0.17;;;5.40;99.90;;;;;;6255312;23;20008;-92
2022/02/05 16:14:02;;;;;;;0.52;0.20;;;5.30;99.90;;;;;;6244331;23;20347;-92
2022/02/05 16:16:47;;;;;;;3.23;0.30;;;5.30;99.90;;;;;;6246219;23;20004;-91
2022/02/05 16:19:21;;;;;;;2.40;0.20;;;5.20;99.90;;;;;;6245706;23;20000;-91
2022/02/05 16:21:46;;;;;;;3.00;0.90;;;5.20;99.90;;;;;;6272143;22;20079;-91
2022/02/05 16:33:00;;;;;;;4.73;0.50;;;5.20;99.90;;;;;;6291161;22;19999;-89
2022/02/05 16:36:26;;;;;;;2.20;0.57;;;5.10;99.90;;;;;;6257385;22;20000;-87
2022/02/05 16:39:13;;;;;;;;;;;;;;;;;;;;;
2022/02/05 16:42:28;;;;;;;;;;;;;;;;;;;;;
2022/02/05 17:17:15;;;;;;;2.33;0.40;;;4.30;99.90;;;;;;6286643;22;20073;-88
2022/02/05 17:20:06;;;;;;;1.50;0.40;;;4.30;99.90;;;;;;6283210;22;20015;-88
2022/02/05 17:23:30;;;;;;;;;;;;;;;;;;;;;
2022/02/05 18:18:17;;;;;;;2.80;0.67;;;3.60;99.90;;;;;;6254531;22;20363;-86
2022/02/05 18:21:17;;;;;;;3.73;0.90;;;3.60;99.90;;;;;;6247830;22;20015;-87
2022/02/05 18:24:02;;;;;;;8.03;1.10;;;3.70;99.90;;;;;;6254231;22;20370;-88
2022/02/05 18:30:15;;;;;;;2.70;0.80;;;3.70;99.90;;;;;;6276252;22;20053;-88
2022/02/05 18:33:16;;;;;;;4.13;1.20;;;3.50;99.90;;;;;;6276277;22;20079;-87
2022/02/05 18:36:38;;;;;;;2.23;0.80;;;3.60;99.90;;;;;;6278732;22;19999;-86
2022/02/05 18:39:47;;;;;;;1.83;0.70;;;3.50;99.90;;;;;;6240041;22;20077;-86
2022/02/05 18:42:33;;;;;;;3.27;0.90;;;3.50;99.90;;;;;;6220991;22;20099;-88
2022/02/05 18:45:07;;;;;;;2.47;0.70;;;3.50;99.90;;;;;;6253302;22;20006;-87
2022/02/05 18:47:33;;;;;;;3.67;0.90;;;3.40;99.90;;;;;;6282560;22;20004;-88
2022/02/05 18:50:55;;;;;;;;;;;;;;;;;;;;;
2022/02/05 18:54:02;;;;;;;3.35;0.80;;;3.40;99.90;;;;;;6282134;22;20031;-88
2022/02/05 18:56:53;;;;;;;;;;;;;;;;;;;;;
2022/02/05 18:59:54;;;;;;;2.13;0.80;;;3.30;99.90;;;;;;6276763;22;20116;-88
2022/02/05 19:18:17;;;;;;;2.13;0.60;;;3.00;99.90;;;;;;6279515;22;20397;-87
2022/02/05 19:20:51;;;;;;;4.97;0.75;;;2.90;99.90;;;;;;6274017;22;20484;-86
2022/02/05 19:23:34;;;;;;;3.33;0.63;;;3.00;99.90;;;;;;6274531;22;20075;-88
2022/02/05 19:26:19;;;;;;;5.50;0.70;;;3.10;99.90;;;;;;6272888;22;20011;-87
2022/02/05 19:28:52;;;;;;;3.23;1.20;;;3.10;99.90;;;;;;6269876;22;20035;-87
2022/02/05 19:31:36;;;;;;;4.13;0.90;;;3.20;99.90;;;;;;6272377;22;20007;-86
2022/02/05 19:34:02;;;;;;;4.10;0.97;;;3.10;99.90;;;;;;6272178;22;20019;-87
2022/02/05 19:36:29;;;;;;;4.37;0.97;;;3.10;99.90;;;;;;6272232;22;20007;-87
2022/02/05 19:39:02;;;;;;;11.57;1.00;;;3.20;99.90;;;;;;6273406;22;20000;-87
2022/02/05 19:41:29;;;;;;;4.80;0.90;;;3.00;99.90;;;;;;6272121;22;20537;-87
2022/02/05 19:43:59;;;;;;;3.33;0.70;;;3.00;99.90;;;;;;6247814;22;19999;-87
2022/02/05 19:46:44;;;;;;;3.53;0.80;;;2.90;99.90;;;;;;6272907;22;20105;-86
2022/02/05 19:49:59;;;;;;;1.97;0.50;;;2.90;99.90;;;;;;6273640;22;20008;-86
2022/02/05 19:52:18;;;;;;;1.57;0.80;;;2.90;99.90;;;;;;6270528;22;20008;-86
2022/02/05 19:54:44;;;;;;;6.63;1.33;;;3.00;99.90;;;;;;6272808;22;20040;-85
2022/02/05 20:00:25;;;;;;;4.03;0.80;;;2.80;99.90;;;;;;6275701;22;20003;-86
2022/02/05 20:03:01;;;;;;;3.07;0.90;;;2.70;99.90;;;;;;6277023;22;20004;-85
2022/02/05 20:05:41;;;;;;;2.73;0.83;;;2.70;99.90;;;;;;6273831;22;20003;-84
2022/02/05 20:08:56;;;;;;;2.67;0.60;;;2.70;99.90;;;;;;6274882;22;20004;-85
2022/02/05 20:11:26;;;;;;;3.50;0.77;;;2.70;99.90;;;;;;6268156;22;20004;-88
2022/02/05 20:14:10;;;;;;;1.87;0.80;;;2.70;99.90;;;;;;6246750;22;20024;-87
2022/02/05 20:16:36;;;;;;;2.63;1.00;;;2.70;99.90;;;;;;6274480;22;20402;-87
2022/02/05 20:19:04;;;;;;;6.20;1.17;;;2.70;99.90;;;;;;6276899;22;20003;-85
2022/02/05 20:21:32;;;;;;;2.47;0.87;;;2.70;99.90;;;;;;6278415;22;20402;-86
2022/02/05 20:24:01;;;;;;;4.43;1.77;;;2.70;99.90;;;;;;6277617;22;20038;-86
2022/02/05 20:26:30;;;;;;;1.77;0.70;;;2.70;99.90;;;;;;6277461;22;20422;-86
2022/02/05 20:28:58;;;;;;;3.97;0.87;;;2.70;99.90;;;;;;6282295;22;20010;-87
2022/02/05 20:31:26;;;;;;;3.53;0.80;;;2.60;99.90;;;;;;6288212;22;20037;-85
2022/02/05 20:33:52;;;;;;;3.73;0.90;;;2.60;99.90;;;;;;6293547;22;20294;-86
2022/02/05 20:36:28;;;;;;;4.30;0.70;;;2.70;99.90;;;;;;6291523;22;20003;-86
2022/02/05 20:38:54;;;;;;;3.77;0.73;;;2.60;99.90;;;;;;6292615;22;20103;-85
2022/02/05 20:41:26;;;;;;;3.07;0.90;;;2.60;99.90;;;;;;6290656;22;20007;-86
2022/02/05 20:43:53;;;;;;;2.28;0.75;;;2.60;99.90;;;;;;6289596;22;19999;-87
2022/02/05 20:46:41;;;;;;;5.63;0.93;;;2.50;99.90;;;;;;6283516;22;19996;-87
2022/02/05 20:49:15;;;;;;;3.57;0.80;;;2.50;99.90;;;;;;6281772;22;20023;-86
2022/02/05 20:51:44;;;;;;;3.53;0.80;;;2.40;99.90;;;;;;6282408;22;20067;-85
2022/02/05 20:54:16;;;;;;;3.20;0.97;;;2.40;99.90;;;;;;6279899;22;20004;-86
2022/02/05 20:56:49;;;;;;;2.78;0.95;;;2.40;99.90;;;;;;6277553;22;20461;-87
2022/02/05 20:59:19;;;;;;;1.80;0.68;;;2.40;99.90;;;;;;6276720;22;20114;-87
2022/02/05 21:01:46;;;;;;;2.13;0.70;;;2.40;99.90;;;;;;6280452;22;20007;-86
2022/02/05 21:04:16;;;;;;;4.63;0.63;;;2.40;99.90;;;;;;6279130;22;20006;-86
2022/02/05 21:06:43;;;;;;;1.87;0.83;;;2.40;99.90;;;;;;6280470;22;20063;-85
2022/02/05 22:27:35;;;;;;;3.17;0.60;;;2.30;99.90;;;;;;6273825;22;20015;-86
2022/02/05 22:30:01;;;;;;;7.03;0.93;;;2.20;99.90;;;;;;6248632;22;20011;-87
2022/02/05 22:32:28;;;;;;;2.90;0.80;;;2.20;99.90;;;;;;6277243;22;20061;-87
2022/02/05 22:34:53;;;;;;;1.90;0.60;;;2.10;99.90;;;;;;6250336;22;20069;-86
2022/02/05 22:37:22;;;;;;;2.10;0.50;;;2.10;99.90;;;;;;6249238;22;20008;-87
2022/02/05 22:39:49;;;;;;;1.10;0.30;;;2.10;99.90;;;;;;6274036;22;20158;-86
2022/02/05 22:42:16;;;;;;;1.37;0.40;;;2.10;99.90;;;;;;6275214;22;20079;-86
2022/02/05 22:44:41;;;;;;;7.27;0.77;;;2.10;99.90;;;;;;6277502;22;19995;-86
2022/02/05 22:47:07;;;;;;;3.77;0.40;;;2.10;99.90;;;;;;6275971;22;20049;-86
2022/02/05 22:49:35;;;;;;;1.53;0.47;;;2.10;99.90;;;;;;6277642;22;20075;-86
2022/02/05 22:52:02;;;;;;;1.83;0.60;;;2.10;99.90;;;;;;6270205;22;20012;-86
2022/02/05 22:54:27;;;;;;;5.07;0.77;;;2.10;99.90;;;;;;6299094;22;20022;-86
2022/02/05 22:56:53;;;;;;;1.27;0.40;;;2.10;99.90;;;;;;6302481;22;19992;-86